Time;durP1;ratioP1;P1;durP2;ratioP2;P2;SDS_P1;SDS_P2;PMS_P1;PMS_P2;Temp;Humidity;BMP_temperature;BMP_pressure;BME280_temperature;BME280_humidity;BME280_pressure;Samples;Min_cycle;Max_cycle;Signal;HPM_P1;HPM_P2
2021/08/03 00:01:27;;;;;;;6.45;3.67;;;;;;;;;;5069807;28;40917;-77
2021/08/03 00:03:59;;;;;;;5.78;3.63;;;;;;;;;;5088684;28;38460;-77
2021/08/03 00:06:26;;;;;;;4.45;3.40;;;;;;;;;;5086537;28;39382;-78
2021/08/03 00:08:57;;;;;;;8.35;4.40;;;;;;;;;;5089774;28;39296;-77
2021/08/03 00:11:25;;;;;;;5.78;3.35;;;;;;;;;;5081922;28;39266;-77
2021/08/03 00:13:52;;;;;;;5.45;3.55;;;;;;;;;;5070879;28;37750;-77
2021/08/03 00:16:19;;;;;;;6.72;3.60;;;;;;;;;;5088443;28;40113;-77
2021/08/03 00:18:46;;;;;;;5.63;3.58;;;;;;;;;;5088982;28;39497;-77
2021/08/03 00:21:12;;;;;;;7.38;3.90;;;;;;;;;;5070282;28;40023;-77
2021/08/03 00:23:41;;;;;;;7.22;4.18;;;;;;;;;;5089138;28;38477;-77
2021/08/03 00:26:08;;;;;;;6.78;3.70;;;;;;;;;;5088597;28;38493;-77
2021/08/03 00:28:34;;;;;;;4.20;3.78;;;;;;;;;;5089725;28;38013;-77
2021/08/03 00:31:00;;;;;;;5.00;3.33;;;;;;;;;;5071380;28;38632;-77
2021/08/03 00:33:27;;;;;;;5.75;3.60;;;;;;;;;;5088774;28;36969;-77
2021/08/03 00:35:53;;;;;;;6.82;3.67;;;;;;;;;;5069781;28;39502;-80
2021/08/03 00:38:20;;;;;;;6.80;4.20;;;;;;;;;;5080513;28;38759;-77
2021/08/03 00:41:05;;;;;;;5.82;3.65;;;;;;;;;;5068570;28;37702;-77
2021/08/03 00:43:31;;;;;;;7.30;3.97;;;;;;;;;;5088823;28;48936;-77
2021/08/03 00:45:58;;;;;;;5.22;3.22;;;;;;;;;;5085570;28;39459;-78
2021/08/03 00:48:24;;;;;;;9.68;4.10;;;;;;;;;;5089249;28;38139;-77
2021/08/03 00:50:51;;;;;;;7.25;4.05;;;;;;;;;;5086345;28;38855;-77
2021/08/03 00:53:17;;;;;;;8.85;3.63;;;;;;;;;;5086037;28;36894;-77
2021/08/03 00:55:44;;;;;;;3.65;3.30;;;;;;;;;;5050359;28;39662;-77
2021/08/03 00:58:12;;;;;;;6.88;3.10;;;;;;;;;;5068153;28;38337;-77
2021/08/03 01:00:38;;;;;;;5.28;4.07;;;;;;;;;;5067220;28;39650;-77
2021/08/03 01:03:05;;;;;;;4.63;3.03;;;;;;;;;;5067871;28;37139;-77
2021/08/03 01:05:34;;;;;;;3.90;3.40;;;;;;;;;;5048725;28;39593;-77
2021/08/03 01:08:30;;;;;;;6.20;3.63;;;;;;;;;;5048916;28;39732;-77
2021/08/03 01:11:13;;;;;;;6.47;3.15;;;;;;;;;;5047057;28;47086;-78
2021/08/03 01:14:02;;;;;;;3.85;3.35;;;;;;;;;;5071911;28;48594;-77
2021/08/03 01:16:55;;;;;;;5.00;3.40;;;;;;;;;;5086614;28;49692;-77
2021/08/03 01:19:53;;;;;;;6.22;3.63;;;;;;;;;;5064812;28;39193;-77
2021/08/03 01:22:39;;;;;;;4.43;4.00;;;;;;;;;;5030180;28;37447;-77
2021/08/03 01:25:24;;;;;;;4.18;3.70;;;;;;;;;;5086770;28;37684;-76
2021/08/03 01:28:05;;;;;;;4.10;3.35;;;;;;;;;;5087732;28;39629;-77
2021/08/03 01:30:33;;;;;;;5.45;3.95;;;;;;;;;;5086917;28;49838;-77
2021/08/03 01:33:01;;;;;;;4.80;3.85;;;;;;;;;;5086878;28;38585;-77
2021/08/03 01:35:28;;;;;;;7.30;4.00;;;;;;;;;;5051788;28;47309;-77
2021/08/03 01:37:55;;;;;;;5.82;3.70;;;;;;;;;;5076799;28;40036;-77
2021/08/03 01:40:22;;;;;;;5.13;3.92;;;;;;;;;;5084637;28;38636;-77
2021/08/03 01:42:49;;;;;;;6.05;4.30;;;;;;;;;;5069580;28;37969;-77
2021/08/03 01:45:17;;;;;;;5.20;3.20;;;;;;;;;;5074869;28;38441;-77
2021/08/03 01:47:43;;;;;;;5.95;4.05;;;;;;;;;;5067845;28;39017;-77
2021/08/03 01:50:11;;;;;;;6.25;3.20;;;;;;;;;;5064764;28;39564;-77
2021/08/03 01:52:38;;;;;;;4.30;3.70;;;;;;;;;;5067266;28;39849;-77
2021/08/03 01:55:05;;;;;;;3.50;2.97;;;;;;;;;;5079715;28;38659;-76
2021/08/03 01:57:32;;;;;;;4.57;3.50;;;;;;;;;;5087172;28;49286;-77
2021/08/03 01:59:59;;;;;;;4.63;3.63;;;;;;;;;;5087760;28;38466;-77
2021/08/03 02:02:26;;;;;;;7.05;4.05;;;;;;;;;;5084694;28;38737;-77
2021/08/03 02:04:54;;;;;;;5.15;4.55;;;;;;;;;;5086290;28;36633;-77
2021/08/03 02:07:21;;;;;;;5.88;3.95;;;;;;;;;;5085716;28;38621;-77
2021/08/03 02:09:48;;;;;;;5.38;4.20;;;;;;;;;;5069968;28;39338;-77
2021/08/03 02:12:15;;;;;;;6.80;4.40;;;;;;;;;;5067390;28;38243;-77
2021/08/03 02:14:45;;;;;;;6.28;3.75;;;;;;;;;;5085887;28;39804;-77
2021/08/03 02:17:19;;;;;;;5.75;3.80;;;;;;;;;;5083384;28;38468;-77
2021/08/03 02:19:45;;;;;;;5.03;3.80;;;;;;;;;;5085475;28;39447;-77
2021/08/03 02:22:12;;;;;;;5.80;3.42;;;;;;;;;;5067988;28;38260;-77
2021/08/03 02:24:38;;;;;;;8.93;4.10;;;;;;;;;;5086850;28;37799;-77
2021/08/03 02:27:05;;;;;;;6.13;3.28;;;;;;;;;;5067921;28;40757;-77
2021/08/03 02:29:32;;;;;;;5.68;3.42;;;;;;;;;;5068791;28;39347;-77
2021/08/03 02:31:59;;;;;;;4.35;3.53;;;;;;;;;;5085572;28;38058;-77
2021/08/03 02:34:30;;;;;;;4.57;3.38;;;;;;;;;;5079495;28;36823;-77
2021/08/03 02:36:59;;;;;;;5.40;3.53;;;;;;;;;;5081805;28;40395;-77
2021/08/03 02:39:27;;;;;;;5.40;3.90;;;;;;;;;;5074146;28;39566;-77
2021/08/03 02:41:54;;;;;;;6.80;3.67;;;;;;;;;;5074982;28;38238;-77
2021/08/03 02:44:20;;;;;;;5.07;3.10;;;;;;;;;;5086642;28;36858;-77
2021/08/03 02:46:53;;;;;;;4.78;3.30;;;;;;;;;;5084168;28;39809;-77
2021/08/03 02:49:28;;;;;;;5.00;3.95;;;;;;;;;;5085652;28;39504;-77
2021/08/03 02:51:55;;;;;;;6.40;4.15;;;;;;;;;;5082893;28;38254;-77
2021/08/03 02:54:26;;;;;;;3.83;3.00;;;;;;;;;;5086067;28;36870;-77
2021/08/03 02:56:54;;;;;;;5.30;3.92;;;;;;;;;;5087688;28;40078;-77
2021/08/03 02:59:21;;;;;;;5.78;3.50;;;;;;;;;;5084875;28;39130;-77
2021/08/03 03:01:47;;;;;;;8.50;4.25;;;;;;;;;;5086213;28;38005;-77
2021/08/03 03:04:49;;;;;;;4.00;3.35;;;;;;;;;;5084634;28;37385;-77
2021/08/03 03:07:19;;;;;;;4.13;3.10;;;;;;;;;;5022046;28;38791;-78
2021/08/03 03:09:46;;;;;;;8.15;3.65;;;;;;;;;;5060089;28;38571;-77
2021/08/03 03:12:13;;;;;;;5.10;3.20;;;;;;;;;;5071181;28;38180;-77
2021/08/03 03:14:41;;;;;;;5.53;3.67;;;;;;;;;;5065270;28;36432;-77
2021/08/03 03:17:08;;;;;;;3.85;3.45;;;;;;;;;;5066093;28;38759;-77
2021/08/03 03:19:36;;;;;;;6.78;3.40;;;;;;;;;;5063332;28;39771;-77
2021/08/03 03:22:03;;;;;;;8.32;3.05;;;;;;;;;;5062752;28;38928;-76
2021/08/03 03:24:32;;;;;;;3.85;2.72;;;;;;;;;;5064493;28;38425;-77
2021/08/03 03:26:58;;;;;;;4.15;3.47;;;;;;;;;;5073338;28;38829;-77
2021/08/03 03:29:26;;;;;;;4.82;3.35;;;;;;;;;;5083684;28;38383;-77
2021/08/03 03:31:53;;;;;;;5.50;3.58;;;;;;;;;;5085057;28;38516;-77
2021/08/03 03:34:20;;;;;;;7.00;3.60;;;;;;;;;;5077854;28;36524;-76
2021/08/03 03:36:48;;;;;;;5.53;3.80;;;;;;;;;;5067859;28;39211;-77
2021/08/03 03:39:15;;;;;;;6.90;3.50;;;;;;;;;;5056711;28;39131;-78
2021/08/03 03:41:43;;;;;;;5.53;3.28;;;;;;;;;;5077032;28;38579;-77
2021/08/03 03:44:10;;;;;;;5.90;3.17;;;;;;;;;;5075270;28;37767;-77
2021/08/03 03:46:42;;;;;;;6.53;3.45;;;;;;;;;;5072381;28;40444;-77
2021/08/03 03:49:11;;;;;;;3.72;3.30;;;;;;;;;;5065401;28;38587;-77
2021/08/03 03:51:41;;;;;;;4.05;3.05;;;;;;;;;;5066233;28;38782;-77
2021/08/03 03:54:08;;;;;;;4.15;3.35;;;;;;;;;;5068750;28;37578;-78
2021/08/03 03:56:41;;;;;;;4.65;3.25;;;;;;;;;;5085081;28;40366;-77
2021/08/03 03:59:10;;;;;;;6.63;3.72;;;;;;;;;;5085715;28;38789;-76
2021/08/03 04:01:36;;;;;;;4.78;3.47;;;;;;;;;;5085210;28;38101;-78
2021/08/03 04:04:05;;;;;;;5.72;3.53;;;;;;;;;;5067261;28;38603;-77
2021/08/03 04:06:33;;;;;;;5.78;3.80;;;;;;;;;;5085249;28;39888;-77
2021/08/03 04:08:59;;;;;;;5.13;3.75;;;;;;;;;;5086727;28;38453;-77
2021/08/03 04:11:26;;;;;;;3.92;3.53;;;;;;;;;;5060151;28;38380;-77
2021/08/03 04:13:52;;;;;;;7.68;4.05;;;;;;;;;;5065766;28;36911;-77
2021/08/03 04:16:19;;;;;;;5.32;4.00;;;;;;;;;;5063055;28;39447;-77
2021/08/03 04:18:47;;;;;;;4.70;3.83;;;;;;;;;;5079728;28;38580;-77
2021/08/03 04:21:13;;;;;;;6.60;2.90;;;;;;;;;;5083946;28;38219;-77
2021/08/03 04:23:40;;;;;;;3.90;3.35;;;;;;;;;;5085195;28;38712;-77
2021/08/03 04:26:06;;;;;;;6.72;4.38;;;;;;;;;;5084301;28;40584;-77
2021/08/03 04:28:33;;;;;;;4.88;3.53;;;;;;;;;;5085130;28;38806;-77
2021/08/03 04:31:00;;;;;;;5.72;3.97;;;;;;;;;;5084527;28;39085;-77
2021/08/03 04:33:27;;;;;;;5.65;3.78;;;;;;;;;;5083756;28;38023;-77
2021/08/03 04:35:53;;;;;;;5.53;3.60;;;;;;;;;;5086590;28;38611;-77
2021/08/03 04:38:20;;;;;;;4.90;3.85;;;;;;;;;;5079873;28;38341;-77
2021/08/03 04:40:46;;;;;;;5.30;3.80;;;;;;;;;;5071743;28;39236;-77
2021/08/03 04:43:12;;;;;;;5.45;3.70;;;;;;;;;;5085901;28;37044;-77
2021/08/03 04:45:39;;;;;;;7.43;4.88;;;;;;;;;;5083439;28;37810;-77
2021/08/03 04:48:05;;;;;;;6.55;4.70;;;;;;;;;;5068130;28;39604;-77
2021/08/03 04:50:32;;;;;;;5.72;4.18;;;;;;;;;;5066313;28;38721;-78
2021/08/03 04:52:58;;;;;;;6.30;4.95;;;;;;;;;;5085288;28;36651;-78
2021/08/03 04:55:24;;;;;;;5.07;3.63;;;;;;;;;;5056727;28;40762;-77
2021/08/03 04:57:51;;;;;;;7.50;4.30;;;;;;;;;;5069539;28;39585;-77
2021/08/03 05:00:17;;;;;;;5.38;3.92;;;;;;;;;;5049165;28;38337;-77
2021/08/03 05:02:44;;;;;;;5.18;3.22;;;;;;;;;;5069224;28;36886;-77
2021/08/03 05:05:11;;;;;;;5.78;3.40;;;;;;;;;;5067989;28;40013;-77
2021/08/03 05:07:37;;;;;;;5.22;3.30;;;;;;;;;;5068845;28;38262;-77
2021/08/03 05:10:05;;;;;;;7.30;3.42;;;;;;;;;;5072558;28;38405;-77
2021/08/03 05:12:32;;;;;;;8.30;3.42;;;;;;;;;;5071972;28;47547;-77
2021/08/03 05:15:00;;;;;;;6.93;3.20;;;;;;;;;;5066510;28;39321;-77
2021/08/03 05:17:33;;;;;;;5.38;3.53;;;;;;;;;;5065331;28;38622;-77
2021/08/03 05:20:00;;;;;;;7.57;3.17;;;;;;;;;;5066248;28;38210;-78
2021/08/03 05:22:27;;;;;;;6.20;3.70;;;;;;;;;;5071184;28;37016;-78
2021/08/03 05:24:54;;;;;;;6.65;3.72;;;;;;;;;;5068301;28;38585;-78
2021/08/03 05:27:20;;;;;;;6.88;3.88;;;;;;;;;;5086410;28;40003;-77
2021/08/03 05:29:47;;;;;;;5.05;3.30;;;;;;;;;;5086995;28;39923;-77
2021/08/03 05:32:13;;;;;;;5.45;4.22;;;;;;;;;;5087159;28;37078;-77
2021/08/03 05:34:39;;;;;;;6.72;4.07;;;;;;;;;;5078099;28;38613;-77
2021/08/03 05:37:06;;;;;;;6.43;3.47;;;;;;;;;;5069176;28;38896;-77
2021/08/03 05:39:32;;;;;;;5.00;3.55;;;;;;;;;;5076415;28;38851;-77
2021/08/03 05:41:59;;;;;;;7.70;4.13;;;;;;;;;;5077200;28;38204;-78
2021/08/03 05:44:26;;;;;;;4.80;3.33;;;;;;;;;;5068884;28;38922;-77
2021/08/03 05:46:52;;;;;;;5.97;3.70;;;;;;;;;;5073919;28;39320;-78
2021/08/03 05:49:18;;;;;;;3.95;3.30;;;;;;;;;;5047762;28;38770;-77
2021/08/03 05:51:45;;;;;;;4.82;3.47;;;;;;;;;;5068066;28;37059;-78
2021/08/03 05:54:11;;;;;;;4.53;3.33;;;;;;;;;;5051669;28;40518;-77
2021/08/03 05:56:38;;;;;;;6.60;3.53;;;;;;;;;;5086146;28;39082;-77
2021/08/03 05:59:05;;;;;;;6.70;3.03;;;;;;;;;;5086461;28;38740;-77
2021/08/03 06:01:31;;;;;;;5.43;2.80;;;;;;;;;;5068882;28;37325;-77
2021/08/03 06:03:58;;;;;;;4.82;2.97;;;;;;;;;;5085847;28;38948;-77
2021/08/03 06:06:26;;;;;;;6.50;3.63;;;;;;;;;;5085196;28;39048;-77
2021/08/03 06:08:55;;;;;;;6.00;3.55;;;;;;;;;;5086365;28;38628;-77
2021/08/03 06:11:25;;;;;;;9.68;4.30;;;;;;;;;;5066791;28;37206;-78
2021/08/03 06:13:57;;;;;;;6.45;3.00;;;;;;;;;;5087072;28;38851;-78
2021/08/03 06:16:25;;;;;;;5.90;3.25;;;;;;;;;;5066696;28;39587;-78
2021/08/03 06:18:53;;;;;;;4.88;2.70;;;;;;;;;;5086490;28;38974;-77
2021/08/03 06:21:20;;;;;;;4.82;2.35;;;;;;;;;;5084681;28;37456;-78
2021/08/03 06:23:48;;;;;;;4.28;1.83;;;;;;;;;;5088192;28;38508;-77
2021/08/03 06:26:15;;;;;;;5.00;2.38;;;;;;;;;;5086733;28;38192;-77
2021/08/03 06:28:44;;;;;;;5.47;2.17;;;;;;;;;;5086165;28;39447;-77
2021/08/03 06:31:11;;;;;;;5.30;1.95;;;;;;;;;;5083840;28;38594;-77
2021/08/03 06:33:38;;;;;;;2.38;1.52;;;;;;;;;;5085973;28;40229;-77
2021/08/03 06:36:04;;;;;;;2.75;1.60;;;;;;;;;;5064506;28;37295;-77
2021/08/03 06:38:31;;;;;;;5.40;1.75;;;;;;;;;;5076337;28;38846;-77
2021/08/03 06:41:17;;;;;;;1.88;1.05;;;;;;;;;;5081692;28;36902;-77
2021/08/03 06:43:51;;;;;;;3.83;1.27;;;;;;;;;;5038086;28;46729;-77
2021/08/03 06:46:18;;;;;;;3.45;1.30;;;;;;;;;;5046297;28;38823;-78
2021/08/03 06:48:47;;;;;;;3.88;1.27;;;;;;;;;;5066134;28;38710;-78
2021/08/03 06:51:15;;;;;;;2.28;1.38;;;;;;;;;;5073699;28;38788;-77
2021/08/03 06:53:42;;;;;;;2.90;1.00;;;;;;;;;;5086532;28;39860;-77
2021/08/03 06:56:09;;;;;;;4.80;1.30;;;;;;;;;;5067708;28;38584;-77
2021/08/03 06:58:46;;;;;;;2.90;1.20;;;;;;;;;;5064206;28;39167;-77
2021/08/03 07:01:19;;;;;;;3.55;1.30;;;;;;;;;;5075321;28;38396;-77
2021/08/03 07:03:49;;;;;;;1.17;1.00;;;;;;;;;;5087565;28;39832;-77
2021/08/03 07:06:18;;;;;;;2.20;0.93;;;;;;;;;;5085599;28;39367;-77
2021/08/03 07:08:44;;;;;;;4.32;1.05;;;;;;;;;;5087207;28;37633;-77
2021/08/03 07:11:11;;;;;;;1.55;0.90;;;;;;;;;;5051101;28;37139;-77
2021/08/03 07:13:38;;;;;;;3.90;1.40;;;;;;;;;;5066973;28;38606;-77
2021/08/03 07:16:05;;;;;;;4.65;1.17;;;;;;;;;;5064996;28;38777;-77
2021/08/03 07:18:31;;;;;;;3.60;1.10;;;;;;;;;;5065044;28;39589;-77
2021/08/03 07:20:59;;;;;;;4.75;0.93;;;;;;;;;;5065249;28;36671;-77
2021/08/03 07:23:25;;;;;;;3.15;1.05;;;;;;;;;;5064064;28;40465;-78
2021/08/03 07:25:52;;;;;;;3.58;1.08;;;;;;;;;;5081383;28;38341;-77
2021/08/03 07:28:19;;;;;;;1.50;1.00;;;;;;;;;;5067322;28;39661;-77
2021/08/03 07:30:46;;;;;;;1.02;0.60;;;;;;;;;;5085545;28;38175;-77
2021/08/03 07:33:13;;;;;;;4.50;1.05;;;;;;;;;;5086518;28;38643;-78
2021/08/03 07:35:43;;;;;;;6.25;1.80;;;;;;;;;;5062775;28;39900;-77
2021/08/03 07:38:11;;;;;;;4.55;1.00;;;;;;;;;;5077128;28;40007;-77
2021/08/03 07:40:38;;;;;;;3.65;1.20;;;;;;;;;;5084772;28;37690;-77
2021/08/03 07:43:05;;;;;;;3.50;1.10;;;;;;;;;;5068144;28;39938;-77
2021/08/03 07:45:32;;;;;;;3.72;1.40;;;;;;;;;;5047618;28;38492;-77
2021/08/03 07:47:58;;;;;;;2.67;1.50;;;;;;;;;;5067283;28;39762;-78
2021/08/03 07:50:25;;;;;;;2.03;1.25;;;;;;;;;;5079863;28;38198;-78
2021/08/03 07:52:52;;;;;;;2.13;0.93;;;;;;;;;;5065745;28;38944;-78
2021/08/03 07:55:18;;;;;;;2.97;1.10;;;;;;;;;;5073207;28;40166;-78
2021/08/03 07:57:44;;;;;;;4.68;1.10;;;;;;;;;;5068459;28;39112;-78
2021/08/03 08:00:11;;;;;;;2.78;1.25;;;;;;;;;;5085340;28;36848;-78
2021/08/03 08:02:38;;;;;;;4.15;1.10;;;;;;;;;;5087032;28;39230;-78
2021/08/03 08:05:04;;;;;;;3.17;1.15;;;;;;;;;;5068759;28;39847;-78
2021/08/03 08:07:30;;;;;;;1.00;0.70;;;;;;;;;;5071294;28;47440;-79
2021/08/03 08:09:57;;;;;;;3.05;1.10;;;;;;;;;;5090162;28;37944;-79
2021/08/03 08:12:23;;;;;;;2.63;0.80;;;;;;;;;;5062062;28;39199;-78
2021/08/03 08:14:49;;;;;;;1.98;0.70;;;;;;;;;;5069191;28;38805;-78
2021/08/03 08:17:16;;;;;;;2.60;1.00;;;;;;;;;;5085147;28;38350;-78
2021/08/03 08:19:43;;;;;;;2.47;0.88;;;;;;;;;;5090327;28;37133;-78
2021/08/03 08:22:09;;;;;;;3.63;1.00;;;;;;;;;;5088169;28;39522;-78
2021/08/03 08:24:36;;;;;;;4.15;1.08;;;;;;;;;;5088310;28;39278;-78
2021/08/03 08:27:02;;;;;;;2.55;0.93;;;;;;;;;;5089388;28;37774;-77
2021/08/03 08:29:29;;;;;;;4.40;1.00;;;;;;;;;;5088425;28;37207;-78
2021/08/03 08:31:55;;;;;;;2.22;0.70;;;;;;;;;;5087207;28;40777;-78
2021/08/03 08:34:22;;;;;;;2.30;1.10;;;;;;;;;;5083173;28;39754;-78
2021/08/03 08:36:50;;;;;;;3.35;1.15;;;;;;;;;;5068814;28;39982;-78
2021/08/03 08:39:16;;;;;;;4.18;1.00;;;;;;;;;;5058700;28;37119;-78
2021/08/03 08:41:44;;;;;;;5.65;1.20;;;;;;;;;;5090006;28;39019;-77
2021/08/03 08:44:10;;;;;;;7.68;1.92;;;;;;;;;;5089812;28;39184;-78
2021/08/03 08:46:37;;;;;;;2.17;1.00;;;;;;;;;;5083010;28;39269;-77
2021/08/03 08:49:04;;;;;;;2.88;1.23;;;;;;;;;;5070244;28;38100;-78
2021/08/03 08:51:31;;;;;;;2.30;1.25;;;;;;;;;;5088992;28;40600;-78
2021/08/03 08:54:00;;;;;;;2.70;0.98;;;;;;;;;;5072469;28;38967;-78
2021/08/03 08:56:27;;;;;;;2.55;1.05;;;;;;;;;;5070723;28;47408;-78
2021/08/03 08:58:53;;;;;;;3.10;1.00;;;;;;;;;;5068775;28;38150;-78
2021/08/03 09:01:20;;;;;;;5.50;1.13;;;;;;;;;;5052476;28;40509;-78
2021/08/03 09:03:46;;;;;;;2.78;1.20;;;;;;;;;;5073128;28;39269;-78
2021/08/03 09:06:12;;;;;;;3.85;0.98;;;;;;;;;;5073627;28;38186;-78
2021/08/03 09:08:46;;;;;;;1.55;1.00;;;;;;;;;;5075620;28;38009;-77
2021/08/03 09:11:14;;;;;;;2.83;1.30;;;;;;;;;;5074895;28;39306;-78
2021/08/03 09:14:06;;;;;;;4.05;1.30;;;;;;;;;;5073334;28;39614;-78
2021/08/03 09:16:45;;;;;;;5.25;1.65;;;;;;;;;;5051796;28;47040;-78
2021/08/03 09:19:47;;;;;;;3.60;1.25;;;;;;;;;;5070912;28;37769;-78
2021/08/03 09:22:19;;;;;;;3.70;1.42;;;;;;;;;;5010876;28;38757;-78
2021/08/03 09:24:47;;;;;;;3.67;1.25;;;;;;;;;;5062729;28;39296;-78
2021/08/03 09:27:49;;;;;;;4.22;1.45;;;;;;;;;;5072169;28;39258;-78
2021/08/03 09:30:18;;;;;;;3.47;1.33;;;;;;;;;;5010171;28;35355;-78
2021/08/03 09:32:46;;;;;;;2.92;1.27;;;;;;;;;;5062646;28;39376;-78
2021/08/03 09:35:13;;;;;;;1.35;1.10;;;;;;;;;;5087377;28;38477;-78
2021/08/03 09:37:40;;;;;;;1.63;0.98;;;;;;;;;;5081008;28;39076;-78
2021/08/03 09:40:08;;;;;;;1.55;1.00;;;;;;;;;;5076196;28;37904;-78
2021/08/03 09:42:34;;;;;;;3.38;0.98;;;;;;;;;;5060939;28;39798;-78
2021/08/03 09:45:05;;;;;;;4.63;1.02;;;;;;;;;;5050191;28;39226;-78
2021/08/03 09:47:32;;;;;;;2.45;0.88;;;;;;;;;;5056434;28;47167;-77
2021/08/03 09:49:59;;;;;;;1.98;0.90;;;;;;;;;;5086738;28;37166;-78
2021/08/03 09:52:27;;;;;;;2.40;1.00;;;;;;;;;;5085780;28;40382;-78
2021/08/03 09:55:06;;;;;;;2.45;0.95;;;;;;;;;;5083929;28;38876;-78
2021/08/03 09:57:33;;;;;;;3.67;1.38;;;;;;;;;;5065433;28;47099;-79
2021/08/03 09:59:59;;;;;;;2.13;0.98;;;;;;;;;;5087250;28;35934;-77
2021/08/03 10:02:26;;;;;;;1.30;0.88;;;;;;;;;;5086175;28;38924;-78
2021/08/03 10:04:54;;;;;;;2.83;0.85;;;;;;;;;;5086956;28;38316;-78
2021/08/03 10:07:20;;;;;;;2.92;0.90;;;;;;;;;;5085388;28;38511;-78
2021/08/03 10:09:48;;;;;;;1.27;1.10;;;;;;;;;;5070387;28;38396;-78
2021/08/03 10:12:15;;;;;;;4.47;1.17;;;;;;;;;;5061362;28;39335;-78
2021/08/03 10:14:42;;;;;;;2.35;1.05;;;;;;;;;;5072522;28;38246;-78
2021/08/03 10:17:09;;;;;;;2.33;1.35;;;;;;;;;;5068785;28;38306;-77
2021/08/03 10:19:37;;;;;;;5.35;1.15;;;;;;;;;;5066815;28;37432;-78
2021/08/03 10:22:12;;;;;;;3.58;1.20;;;;;;;;;;5067408;28;39212;-77
2021/08/03 10:24:40;;;;;;;3.47;1.33;;;;;;;;;;5068250;28;38841;-77
2021/08/03 10:27:07;;;;;;;1.35;1.20;;;;;;;;;;5067268;28;38080;-78
2021/08/03 10:29:35;;;;;;;2.08;1.13;;;;;;;;;;5067164;28;37048;-78
2021/08/03 10:32:01;;;;;;;2.88;1.05;;;;;;;;;;5070946;28;40679;-78
2021/08/03 10:34:43;;;;;;;4.60;1.42;;;;;;;;;;5055260;28;47442;-78
2021/08/03 10:37:12;;;;;;;2.03;1.00;;;;;;;;;;5084222;28;37823;-78
2021/08/03 10:40:12;;;;;;;3.80;1.88;;;;;;;;;;5072758;28;37648;-78
2021/08/03 10:42:38;;;;;;;4.07;1.55;;;;;;;;;;5030768;28;49684;-78
2021/08/03 10:45:16;;;;;;;1.92;1.50;;;;;;;;;;5065717;28;38579;-75
2021/08/03 10:47:43;;;;;;;2.97;1.67;;;;;;;;;;5081328;28;38291;-78
2021/08/03 10:50:14;;;;;;;1.90;1.50;;;;;;;;;;5083844;28;38925;-78
2021/08/03 10:52:46;;;;;;;4.53;1.50;;;;;;;;;;5087294;28;39107;-78
2021/08/03 10:55:31;;;;;;;3.17;1.73;;;;;;;;;;5078444;28;37518;-78
2021/08/03 10:58:10;;;;;;;2.38;1.30;;;;;;;;;;5065427;28;37316;-78
2021/08/03 11:01:03;;;;;;;3.40;1.50;;;;;;;;;;5064768;28;48619;-78
2021/08/03 11:03:35;;;;;;;2.63;1.75;;;;;;;;;;5045795;28;47103;-78
2021/08/03 11:06:04;;;;;;;2.72;1.70;;;;;;;;;;5072142;28;38947;-77
2021/08/03 11:08:32;;;;;;;3.63;1.50;;;;;;;;;;5082265;28;36940;-78
2021/08/03 11:11:05;;;;;;;3.63;1.80;;;;;;;;;;5066007;28;36823;-76
2021/08/03 11:13:39;;;;;;;4.07;1.85;;;;;;;;;;5080718;28;47341;-77
2021/08/03 11:16:11;;;;;;;4.63;1.33;;;;;;;;;;5067570;28;37296;-76
2021/08/03 11:18:41;;;;;;;2.72;1.45;;;;;;;;;;5088628;28;38294;-77
2021/08/03 11:21:09;;;;;;;4.13;2.00;;;;;;;;;;5085952;28;37768;-77
2021/08/03 11:23:54;;;;;;;6.80;1.92;;;;;;;;;;5069320;28;39826;-76
2021/08/03 11:26:21;;;;;;;5.60;2.33;;;;;;;;;;5086228;28;40150;-76
2021/08/03 11:28:58;;;;;;;2.47;1.77;;;;;;;;;;5088061;28;38086;-76
2021/08/03 11:31:41;;;;;;;2.75;2.33;;;;;;;;;;5086280;28;37744;-77
2021/08/03 11:34:08;;;;;;;3.78;2.33;;;;;;;;;;5082021;28;39132;-76
2021/08/03 11:36:38;;;;;;;3.80;2.35;;;;;;;;;;5066934;28;38165;-76
2021/08/03 11:39:20;;;;;;;3.75;1.70;;;;;;;;;;5077496;28;37409;-76
2021/08/03 11:41:47;;;;;;;3.58;2.50;;;;;;;;;;5086258;28;37977;-77
2021/08/03 11:44:14;;;;;;;3.25;1.88;;;;;;;;;;5069183;28;38067;-76
2021/08/03 11:46:42;;;;;;;2.72;1.88;;;;;;;;;;5075202;28;38939;-77
2021/08/03 11:49:10;;;;;;;3.47;2.05;;;;;;;;;;5088845;28;38321;-76
2021/08/03 11:51:43;;;;;;;3.53;2.42;;;;;;;;;;5090583;28;37196;-76
2021/08/03 11:54:16;;;;;;;4.47;2.00;;;;;;;;;;5089220;28;40006;-76
2021/08/03 11:56:43;;;;;;;4.28;2.10;;;;;;;;;;5088399;28;38857;-76
2021/08/03 11:59:11;;;;;;;3.63;1.90;;;;;;;;;;5085139;28;37058;-76
2021/08/03 12:01:53;;;;;;;3.70;2.10;;;;;;;;;;5067438;28;35761;-76
2021/08/03 12:04:23;;;;;;;2.13;1.80;;;;;;;;;;5069330;28;39708;-76
2021/08/03 12:06:51;;;;;;;5.82;2.10;;;;;;;;;;5083783;28;38410;-79
2021/08/03 12:09:18;;;;;;;3.00;1.75;;;;;;;;;;5089141;28;37889;-79
2021/08/03 12:11:47;;;;;;;3.13;2.00;;;;;;;;;;5071073;28;35916;-79
2021/08/03 12:14:15;;;;;;;3.05;1.40;;;;;;;;;;5087834;28;37824;-79
2021/08/03 12:16:43;;;;;;;3.95;1.85;;;;;;;;;;5071168;28;38311;-79
2021/08/03 12:19:28;;;;;;;4.80;1.55;;;;;;;;;;5071158;28;36838;-78
2021/08/03 12:21:55;;;;;;;4.90;1.60;;;;;;;;;;5089383;28;36809;-79
2021/08/03 12:24:21;;;;;;;4.15;1.65;;;;;;;;;;5089332;28;39058;-78
2021/08/03 12:26:48;;;;;;;4.25;1.50;;;;;;;;;;5090093;28;38383;-79
2021/08/03 12:29:14;;;;;;;3.08;1.70;;;;;;;;;;5088853;28;38260;-78
2021/08/03 12:31:41;;;;;;;3.45;1.45;;;;;;;;;;5090137;28;37062;-79
2021/08/03 12:34:19;;;;;;;6.38;2.13;;;;;;;;;;5068726;28;37604;-78
2021/08/03 12:36:56;;;;;;;4.15;1.80;;;;;;;;;;5084922;28;38706;-78
2021/08/03 12:39:31;;;;;;;3.58;2.00;;;;;;;;;;5080286;28;37038;-79
2021/08/03 12:42:05;;;;;;;3.88;1.25;;;;;;;;;;5086555;28;36650;-79
2021/08/03 12:44:33;;;;;;;4.07;1.70;;;;;;;;;;5067829;28;47684;-79
2021/08/03 12:47:13;;;;;;;3.17;1.75;;;;;;;;;;5077319;28;38821;-79
2021/08/03 12:49:40;;;;;;;4.35;2.00;;;;;;;;;;5084690;28;48819;-76
2021/08/03 12:52:08;;;;;;;2.10;1.70;;;;;;;;;;5069742;28;36026;-76
2021/08/03 12:54:35;;;;;;;4.43;1.52;;;;;;;;;;5072214;28;37805;-77
2021/08/03 12:57:03;;;;;;;3.72;1.60;;;;;;;;;;5072363;28;37178;-76
2021/08/03 12:59:39;;;;;;;2.67;1.65;;;;;;;;;;5089987;28;48945;-77
2021/08/03 13:02:06;;;;;;;4.28;1.83;;;;;;;;;;5086822;28;35612;-76
2021/08/03 13:04:32;;;;;;;3.05;1.83;;;;;;;;;;5086871;28;37702;-77
2021/08/03 13:07:02;;;;;;;4.32;2.10;;;;;;;;;;5088892;28;39314;-76
2021/08/03 13:09:29;;;;;;;3.08;1.45;;;;;;;;;;5088978;28;49106;-76
2021/08/03 13:11:56;;;;;;;3.78;2.10;;;;;;;;;;5068632;28;35646;-76
2021/08/03 13:14:22;;;;;;;4.15;2.17;;;;;;;;;;5068950;28;39238;-76
2021/08/03 13:16:54;;;;;;;3.53;2.00;;;;;;;;;;5068701;28;38634;-77
2021/08/03 13:19:21;;;;;;;4.80;1.83;;;;;;;;;;5067493;28;39345;-76
2021/08/03 13:21:48;;;;;;;4.35;1.90;;;;;;;;;;5073879;28;35924;-76
2021/08/03 13:24:15;;;;;;;3.95;1.80;;;;;;;;;;5087527;28;38180;-76
2021/08/03 13:26:41;;;;;;;2.42;1.85;;;;;;;;;;5087340;28;39422;-76
2021/08/03 13:29:07;;;;;;;2.10;1.45;;;;;;;;;;5087255;28;36931;-76
2021/08/03 13:31:34;;;;;;;2.72;1.50;;;;;;;;;;5086788;28;37733;-77
2021/08/03 13:34:00;;;;;;;4.00;2.10;;;;;;;;;;5085592;28;38699;-76
2021/08/03 13:36:26;;;;;;;3.25;1.45;;;;;;;;;;5065812;28;46834;-77
2021/08/03 13:38:54;;;;;;;4.80;1.30;;;;;;;;;;5074703;28;39521;-77
2021/08/03 13:41:20;;;;;;;4.72;2.28;;;;;;;;;;5087293;28;37052;-76
2021/08/03 13:43:46;;;;;;;3.25;2.20;;;;;;;;;;5074588;28;38648;-77
2021/08/03 13:46:13;;;;;;;4.00;2.40;;;;;;;;;;5068653;28;38745;-77
2021/08/03 13:48:39;;;;;;;3.55;2.08;;;;;;;;;;5091222;28;39908;-77
2021/08/03 13:51:06;;;;;;;3.42;2.05;;;;;;;;;;5087357;28;36915;-76
2021/08/03 13:53:32;;;;;;;5.80;2.72;;;;;;;;;;5088079;28;39687;-76
2021/08/03 13:55:58;;;;;;;6.10;2.38;;;;;;;;;;5085223;28;38636;-76
2021/08/03 13:58:25;;;;;;;4.32;1.90;;;;;;;;;;5087250;28;36741;-76
2021/08/03 14:00:51;;;;;;;3.75;1.52;;;;;;;;;;5087811;28;36718;-77
2021/08/03 14:03:17;;;;;;;2.83;2.05;;;;;;;;;;5088467;28;38866;-77
2021/08/03 14:05:44;;;;;;;4.40;2.17;;;;;;;;;;5088215;28;38792;-76
2021/08/03 14:08:10;;;;;;;2.38;1.80;;;;;;;;;;5087297;28;38168;-76
2021/08/03 14:10:37;;;;;;;5.43;2.08;;;;;;;;;;5089048;28;37086;-76
2021/08/03 14:13:03;;;;;;;3.03;1.40;;;;;;;;;;5085615;28;40066;-76
2021/08/03 14:15:29;;;;;;;3.63;2.20;;;;;;;;;;5084764;28;39600;-76
2021/08/03 14:17:56;;;;;;;3.97;2.00;;;;;;;;;;5081882;28;38892;-76
2021/08/03 14:20:22;;;;;;;3.63;1.90;;;;;;;;;;5085624;28;37060;-79
2021/08/03 14:22:49;;;;;;;3.25;2.13;;;;;;;;;;5082099;28;39434;-76
2021/08/03 14:25:15;;;;;;;5.60;2.00;;;;;;;;;;5068281;28;38634;-76
2021/08/03 14:27:41;;;;;;;2.60;1.83;;;;;;;;;;5073832;28;39370;-75
2021/08/03 14:30:08;;;;;;;5.70;2.20;;;;;;;;;;5067764;28;37132;-75
2021/08/03 14:32:34;;;;;;;2.75;1.90;;;;;;;;;;5068957;28;40965;-76
2021/08/03 14:35:01;;;;;;;3.53;1.65;;;;;;;;;;5074786;28;39423;-76
2021/08/03 14:37:27;;;;;;;4.30;1.95;;;;;;;;;;5067223;28;38087;-76
2021/08/03 14:39:53;;;;;;;4.55;1.80;;;;;;;;;;5075789;28;37258;-76
2021/08/03 14:42:21;;;;;;;5.82;2.15;;;;;;;;;;5063586;28;20052;-77
2021/08/03 14:44:47;;;;;;;4.05;2.17;;;;;;;;;;5086489;28;37380;-79
2021/08/03 14:47:13;;;;;;;5.30;2.35;;;;;;;;;;5079066;28;38062;-79
2021/08/03 14:49:40;;;;;;;3.70;1.60;;;;;;;;;;5068070;28;37252;-79
2021/08/03 14:52:06;;;;;;;5.15;1.75;;;;;;;;;;5063929;28;40704;-78
2021/08/03 14:54:33;;;;;;;2.88;1.60;;;;;;;;;;5068508;28;38193;-79